createdAt,value
2019-01-29T00:01:31.422Z,6.07
2019-01-29T00:03:59.300Z,6.70
2019-01-29T00:06:27.080Z,9.23
2019-01-29T00:08:55.606Z,6.30
2019-01-29T00:11:23.964Z,8.33
2019-01-29T00:13:52.459Z,7.37
2019-01-29T00:16:20.856Z,6.03
2019-01-29T00:18:48.603Z,6.57
2019-01-29T00:21:16.293Z,4.60
2019-01-29T00:23:44.358Z,4.63
2019-01-29T00:26:12.431Z,6.57
2019-01-29T00:28:40.828Z,4.50
2019-01-29T00:31:08.976Z,5.20
2019-01-29T00:33:36.661Z,6.00
2019-01-29T00:36:04.748Z,5.10
2019-01-29T00:38:32.210Z,4.60
2019-01-29T00:41:00.638Z,4.90
2019-01-29T00:43:28.869Z,6.73
2019-01-29T00:45:57.110Z,4.40
2019-01-29T00:48:25.227Z,3.60
2019-01-29T00:50:53.637Z,3.57
2019-01-29T00:53:21.844Z,3.20
2019-01-29T00:58:45.398Z,4.00
2019-01-29T01:01:13.688Z,3.40
2019-01-29T01:04:21.733Z,4.63
2019-01-29T01:06:50.248Z,3.43
2019-01-29T01:09:17.553Z,4.20
2019-01-29T01:12:05.199Z,3.87
2019-01-29T01:14:33.603Z,4.07
2019-01-29T01:17:01.775Z,4.30
2019-01-29T01:19:30.180Z,4.23
2019-01-29T01:21:58.648Z,4.23
2019-01-29T01:24:27.129Z,4.00
2019-01-29T01:26:55.633Z,5.27
2019-01-29T01:29:24.112Z,3.70
2019-01-29T01:31:51.611Z,3.50
2019-01-29T01:34:19.455Z,3.77
2019-01-29T01:36:47.950Z,4.53
2019-01-29T01:39:16.079Z,3.93
2019-01-29T01:41:43.953Z,3.10
2019-01-29T01:44:12.473Z,4.10
2019-01-29T01:49:36.488Z,3.67
2019-01-29T01:52:04.657Z,2.87
2019-01-29T01:54:32.830Z,3.33
2019-01-29T01:57:00.868Z,3.10
2019-01-29T01:59:28.611Z,3.70
2019-01-29T02:01:57.149Z,3.70
2019-01-29T02:04:25.590Z,3.47
2019-01-29T02:06:53.313Z,3.73
2019-01-29T02:09:21.390Z,3.23
2019-01-29T02:11:49.797Z,3.00
2019-01-29T02:14:18.254Z,3.63
2019-01-29T02:16:46.036Z,3.60
2019-01-29T02:19:13.790Z,3.00
2019-01-29T02:21:41.917Z,3.67
2019-01-29T02:24:10.357Z,3.07
2019-01-29T02:26:38.844Z,3.30
2019-01-29T02:29:06.932Z,4.13
2019-01-29T02:31:35.240Z,3.83
2019-01-29T02:34:03.218Z,3.30
2019-01-29T02:36:31.112Z,2.80
2019-01-29T02:38:58.743Z,2.80
2019-01-29T02:41:27.224Z,3.10
2019-01-29T02:43:55.330Z,2.43
2019-01-29T02:46:23.788Z,2.63
2019-01-29T02:48:52.175Z,2.67
2019-01-29T02:51:20.662Z,2.77
2019-01-29T02:53:49.040Z,2.60
2019-01-29T02:56:17.510Z,3.17
2019-01-29T02:58:45.697Z,3.30
2019-01-29T03:01:13.370Z,3.30
2019-01-29T03:03:41.357Z,2.90
2019-01-29T03:06:09.612Z,2.90
2019-01-29T03:08:37.283Z,2.83
2019-01-29T03:11:05.471Z,2.67
2019-01-29T03:13:33.296Z,3.23
2019-01-29T03:16:01.439Z,2.77
2019-01-29T03:18:29.912Z,2.90
2019-01-29T03:20:58.045Z,2.63
2019-01-29T03:23:27.472Z,2.73
2019-01-29T03:25:56.083Z,2.43
2019-01-29T03:28:24.575Z,2.50
2019-01-29T03:30:52.935Z,2.30
2019-01-29T03:33:21.341Z,2.37
2019-01-29T03:35:49.458Z,3.00
2019-01-29T03:38:17.559Z,2.50
2019-01-29T03:40:45.989Z,3.00
2019-01-29T03:43:14.383Z,3.40
2019-01-29T03:45:42.860Z,2.30
2019-01-29T03:48:10.926Z,3.30
2019-01-29T03:50:38.604Z,2.97
2019-01-29T03:53:05.989Z,2.50
2019-01-29T03:55:34.066Z,2.27
2019-01-29T03:58:02.176Z,2.83
2019-01-29T04:00:30.696Z,2.83
2019-01-29T04:02:59.119Z,2.63
2019-01-29T04:05:27.153Z,2.50
2019-01-29T04:07:55.346Z,2.97
2019-01-29T04:10:23.937Z,2.57
2019-01-29T04:12:52.020Z,2.90
2019-01-29T04:15:20.555Z,2.73
2019-01-29T04:18:28.983Z,2.53
2019-01-29T04:20:57.170Z,2.33
2019-01-29T04:23:24.524Z,2.20
2019-01-29T04:28:47.619Z,2.57
2019-01-29T04:31:16.099Z,2.60
2019-01-29T04:33:44.265Z,4.07
2019-01-29T04:36:12.383Z,4.80
2019-01-29T04:38:40.835Z,7.60
2019-01-29T04:41:09.023Z,2.43
2019-01-29T04:43:37.079Z,3.40
2019-01-29T04:46:05.532Z,3.63
2019-01-29T04:48:34.051Z,3.23
2019-01-29T04:51:02.542Z,3.40
2019-01-29T04:53:30.389Z,2.80
2019-01-29T04:55:58.905Z,3.70
2019-01-29T04:58:27.429Z,3.10
2019-01-29T05:00:55.999Z,4.47
2019-01-29T05:03:23.754Z,4.60
2019-01-29T05:05:51.523Z,3.07
2019-01-29T05:08:19.599Z,4.03
2019-01-29T05:10:48.124Z,4.07
2019-01-29T05:13:16.270Z,3.43
2019-01-29T05:15:44.719Z,3.37
2019-01-29T05:18:12.931Z,6.90
2019-01-29T05:20:41.099Z,4.63
2019-01-29T05:23:09.287Z,5.50
2019-01-29T05:25:36.704Z,6.90
2019-01-29T05:28:05.064Z,4.37
2019-01-29T05:30:33.145Z,5.47
2019-01-29T05:33:00.888Z,3.80
2019-01-29T05:35:29.370Z,4.50
2019-01-29T05:37:57.549Z,3.33
2019-01-29T05:40:25.324Z,6.97
2019-01-29T05:42:53.932Z,4.30
2019-01-29T05:45:22.661Z,3.80
2019-01-29T05:47:51.190Z,4.23
2019-01-29T05:50:19.126Z,6.23
2019-01-29T05:52:47.670Z,8.37
2019-01-29T05:55:15.305Z,4.53
2019-01-29T05:57:43.106Z,3.50
2019-01-29T06:03:10.204Z,5.10
2019-01-29T06:05:38.329Z,3.20
2019-01-29T06:08:06.340Z,3.63
2019-01-29T06:10:34.798Z,3.30
2019-01-29T06:13:02.163Z,3.47
2019-01-29T06:15:30.337Z,3.77
2019-01-29T06:17:58.152Z,3.80
2019-01-29T06:20:27.549Z,3.30
2019-01-29T06:22:55.809Z,4.37
2019-01-29T06:25:23.555Z,5.53
2019-01-29T06:27:51.690Z,3.53
2019-01-29T06:30:20.544Z,6.20
2019-01-29T06:32:49.024Z,3.33
2019-01-29T06:35:57.888Z,3.40
2019-01-29T06:38:25.980Z,5.13
2019-01-29T06:40:53.856Z,4.33
2019-01-29T06:43:22.280Z,5.03
2019-01-29T06:45:50.382Z,4.00
2019-01-29T06:48:18.429Z,3.73
2019-01-29T06:50:46.595Z,2.80
2019-01-29T06:53:14.985Z,2.80
2019-01-29T06:55:43.261Z,3.90
2019-01-29T06:58:11.780Z,3.60
2019-01-29T07:00:38.833Z,3.90
2019-01-29T07:03:07.300Z,10.43
2019-01-29T07:05:35.784Z,3.93
2019-01-29T07:08:03.645Z,3.73
2019-01-29T07:10:31.784Z,3.10
2019-01-29T07:12:59.635Z,2.87
2019-01-29T07:15:47.098Z,2.77
2019-01-29T07:18:34.434Z,4.13
2019-01-29T07:23:39.363Z,2.93
2019-01-29T07:26:07.289Z,3.50
2019-01-29T07:28:35.708Z,3.03
2019-01-29T07:31:44.245Z,3.80
2019-01-29T07:34:12.651Z,4.50
2019-01-29T07:36:40.820Z,3.00
2019-01-29T07:39:50.584Z,3.73
2019-01-29T07:42:18.807Z,3.53
2019-01-29T07:44:47.235Z,3.37
2019-01-29T07:47:15.388Z,2.77
2019-01-29T07:49:43.585Z,2.80
2019-01-29T07:52:12.929Z,3.43
2019-01-29T07:54:41.124Z,3.10
2019-01-29T07:57:09.545Z,3.80
2019-01-29T07:59:38.010Z,3.77
2019-01-29T08:02:06.536Z,4.50
2019-01-29T08:04:35.030Z,4.37
2019-01-29T08:07:03.380Z,4.80
2019-01-29T08:09:31.106Z,4.40
2019-01-29T08:11:59.127Z,4.53
2019-01-29T08:14:27.319Z,4.50
2019-01-29T08:16:55.977Z,4.20
2019-01-29T08:19:24.360Z,4.83
2019-01-29T08:21:53.015Z,4.53
2019-01-29T08:24:21.534Z,8.33
2019-01-29T08:26:49.762Z,5.10
2019-01-29T08:29:17.509Z,4.40
2019-01-29T08:31:45.646Z,5.53
2019-01-29T08:34:14.117Z,5.43
2019-01-29T08:36:42.235Z,6.00
2019-01-29T08:39:10.477Z,6.80
2019-01-29T08:41:38.525Z,6.90
2019-01-29T08:44:06.291Z,5.30
2019-01-29T08:46:34.461Z,4.53
2019-01-29T08:49:02.246Z,4.83
2019-01-29T08:51:30.631Z,5.20
2019-01-29T08:53:59.109Z,6.00
2019-01-29T08:56:27.285Z,5.73
2019-01-29T08:58:55.780Z,5.83
2019-01-29T09:01:24.320Z,4.73
2019-01-29T09:03:52.065Z,4.43
2019-01-29T09:06:19.826Z,4.73
2019-01-29T09:08:47.881Z,4.47
2019-01-29T09:11:15.756Z,4.67
2019-01-29T09:13:43.840Z,4.97
2019-01-29T09:16:11.686Z,5.57
2019-01-29T09:18:40.091Z,5.17
2019-01-29T09:21:08.183Z,5.50
2019-01-29T09:23:36.429Z,4.00
2019-01-29T09:26:04.815Z,3.73
2019-01-29T09:28:32.658Z,5.33
2019-01-29T09:31:00.416Z,3.87
2019-01-29T09:33:28.910Z,4.30
2019-01-29T09:35:57.090Z,4.17
2019-01-29T09:38:25.544Z,3.13
2019-01-29T09:40:53.712Z,3.43
2019-01-29T09:43:21.476Z,3.77
2019-01-29T09:45:49.971Z,2.90
2019-01-29T09:48:18.330Z,3.90
2019-01-29T09:50:46.937Z,4.30
2019-01-29T09:53:15.532Z,3.80
2019-01-29T09:55:43.694Z,2.53
2019-01-29T09:58:11.895Z,3.00
2019-01-29T10:00:40.400Z,2.10
2019-01-29T10:03:48.834Z,3.17
2019-01-29T10:06:16.947Z,5.10
2019-01-29T10:08:45.132Z,3.13
2019-01-29T10:11:13.615Z,3.30
2019-01-29T10:13:42.201Z,3.23
2019-01-29T10:16:09.991Z,4.97
2019-01-29T10:18:38.050Z,2.70
2019-01-29T10:21:06.652Z,2.83
2019-01-29T10:23:34.555Z,2.60
2019-01-29T10:26:02.687Z,4.87
2019-01-29T10:28:30.777Z,4.00
2019-01-29T10:30:58.937Z,3.13
2019-01-29T10:33:27.447Z,3.13
2019-01-29T10:35:55.214Z,3.10
2019-01-29T10:38:22.975Z,4.07
2019-01-29T10:40:51.261Z,3.07
2019-01-29T10:43:18.642Z,3.33
2019-01-29T10:45:46.780Z,2.97
2019-01-29T10:48:14.867Z,3.00
2019-01-29T10:50:42.707Z,3.17
2019-01-29T10:53:10.735Z,3.47
2019-01-29T10:55:47.056Z,4.33
2019-01-29T10:58:08.190Z,3.10
2019-01-29T11:00:39.033Z,2.50
2019-01-29T11:03:47.788Z,2.60
2019-01-29T11:06:15.922Z,5.23
2019-01-29T11:08:44.122Z,2.90
2019-01-29T11:11:12.711Z,2.60
2019-01-29T11:13:41.162Z,2.10
2019-01-29T11:16:09.420Z,1.83
2019-01-29T11:18:38.157Z,2.47
2019-01-29T11:21:05.960Z,2.60
2019-01-29T11:23:33.412Z,2.23
2019-01-29T11:26:01.782Z,1.90
2019-01-29T11:28:29.147Z,2.03
2019-01-29T11:30:56.907Z,2.17
2019-01-29T11:33:25.402Z,3.20
2019-01-29T11:35:53.197Z,2.00
2019-01-29T11:38:21.581Z,2.37
2019-01-29T11:40:49.393Z,1.67
2019-01-29T11:43:17.620Z,2.00
2019-01-29T11:46:05.680Z,2.20
2019-01-29T11:48:34.234Z,1.93
2019-01-29T11:51:02.719Z,1.80
2019-01-29T11:53:50.234Z,6.80
2019-01-29T11:56:18.421Z,4.10
2019-01-29T11:58:46.587Z,1.50
2019-01-29T12:01:18.044Z,3.53
2019-01-29T12:03:46.640Z,3.40
2019-01-29T12:06:15.032Z,2.50
2019-01-29T12:08:43.305Z,1.63
2019-01-29T12:11:11.448Z,4.03
2019-01-29T12:13:39.466Z,4.73
2019-01-29T12:16:07.767Z,2.47
2019-01-29T12:18:36.332Z,1.63
2019-01-29T12:21:04.621Z,1.43
2019-01-29T12:23:32.801Z,1.67
2019-01-29T12:26:00.971Z,1.90
2019-01-29T12:28:29.468Z,2.10
2019-01-29T12:30:57.321Z,2.33
2019-01-29T12:33:25.402Z,2.00
2019-01-29T12:35:53.483Z,2.27
2019-01-29T12:38:20.777Z,2.10
2019-01-29T12:40:49.223Z,2.40
2019-01-29T12:43:17.857Z,2.20
2019-01-29T12:45:48.185Z,2.30
2019-01-29T12:48:16.560Z,2.10
2019-01-29T12:53:45.184Z,2.03
2019-01-29T12:56:21.241Z,2.13
2019-01-29T12:58:43.316Z,3.20
2019-01-29T13:01:11.003Z,2.20
2019-01-29T13:03:39.180Z,2.33
2019-01-29T13:06:07.590Z,2.63
2019-01-29T13:08:35.055Z,6.10
2019-01-29T13:11:03.293Z,5.20
2019-01-29T13:13:31.382Z,3.13
2019-01-29T13:15:59.152Z,2.70
2019-01-29T13:18:27.346Z,5.63
2019-01-29T13:20:55.816Z,3.60
2019-01-29T13:23:23.992Z,3.27
2019-01-29T13:25:52.186Z,2.00
2019-01-29T13:28:19.958Z,2.80
2019-01-29T13:30:48.024Z,2.80
2019-01-29T13:33:56.180Z,2.40
2019-01-29T13:36:24.606Z,2.40
2019-01-29T13:38:53.088Z,2.40
2019-01-29T13:41:20.801Z,2.43
2019-01-29T13:43:48.641Z,4.23
2019-01-29T13:46:17.061Z,2.73
2019-01-29T13:48:44.778Z,2.30
2019-01-29T13:51:12.565Z,2.50
2019-01-29T13:53:40.396Z,2.63
2019-01-29T13:56:09.025Z,2.00
2019-01-29T13:58:37.096Z,1.90
2019-01-29T14:01:45.213Z,2.00
2019-01-29T14:04:13.672Z,2.00
2019-01-29T14:06:41.854Z,1.87
2019-01-29T14:09:10.247Z,1.77
2019-01-29T14:11:38.720Z,1.77
2019-01-29T14:14:06.891Z,1.87
2019-01-29T14:16:35.190Z,1.67
2019-01-29T14:19:22.293Z,1.30
2019-01-29T14:21:50.507Z,1.73
2019-01-29T14:24:18.997Z,1.40
2019-01-29T14:29:20.238Z,2.43
2019-01-29T14:31:48.647Z,1.30
2019-01-29T14:34:16.783Z,1.10
2019-01-29T14:37:04.375Z,1.93
2019-01-29T14:40:18.712Z,2.03
2019-01-29T14:42:48.166Z,4.57
2019-01-29T14:45:23.901Z,1.47
2019-01-29T14:47:52.283Z,1.10
2019-01-29T14:50:20.898Z,1.40
2019-01-29T14:52:48.993Z,1.20
2019-01-29T14:55:16.431Z,2.97
2019-01-29T14:57:44.838Z,3.73
2019-01-29T15:00:17.662Z,3.70
2019-01-29T15:02:46.182Z,2.73
2019-01-29T15:05:14.772Z,2.10
2019-01-29T15:07:42.564Z,1.70
2019-01-29T15:10:51.577Z,1.60
2019-01-29T15:13:19.735Z,2.13
2019-01-29T15:18:44.544Z,2.37
2019-01-29T15:21:12.817Z,2.63
2019-01-29T15:23:41.401Z,1.43
2019-01-29T15:26:09.536Z,1.20
2019-01-29T15:28:37.222Z,1.30
2019-01-29T15:31:05.668Z,1.33
2019-01-29T15:33:34.386Z,1.20
2019-01-29T15:36:03.029Z,1.07
2019-01-29T15:38:31.425Z,1.30
2019-01-29T15:40:59.523Z,1.60
2019-01-29T15:43:27.982Z,1.60
2019-01-29T15:45:56.021Z,2.07
2019-01-29T15:48:24.011Z,4.23
2019-01-29T15:50:52.216Z,2.63
2019-01-29T15:53:20.352Z,1.90
2019-01-29T15:55:48.592Z,1.80
2019-01-29T15:58:16.387Z,1.40
2019-01-29T16:00:44.494Z,1.60
2019-01-29T16:03:12.361Z,1.70
2019-01-29T16:05:40.515Z,1.43
2019-01-29T16:08:08.756Z,1.60
2019-01-29T16:11:16.807Z,1.60
2019-01-29T16:13:44.927Z,1.60
2019-01-29T16:16:13.104Z,1.73
2019-01-29T16:18:40.890Z,1.53
2019-01-29T16:21:08.722Z,1.47
2019-01-29T16:23:36.963Z,1.80
2019-01-29T16:26:05.292Z,2.53
2019-01-29T16:28:33.907Z,2.20
2019-01-29T16:31:02.467Z,2.10
2019-01-29T16:33:30.262Z,2.80
2019-01-29T16:35:58.434Z,1.60
2019-01-29T16:38:26.618Z,1.93
2019-01-29T16:41:00.407Z,2.40
2019-01-29T16:43:25.725Z,1.90
2019-01-29T16:45:54.333Z,2.30
2019-01-29T16:48:22.763Z,5.00
2019-01-29T16:50:51.412Z,2.70
2019-01-29T16:53:19.994Z,2.80
2019-01-29T16:55:48.614Z,3.23
2019-01-29T16:58:16.751Z,2.97
2019-01-29T17:00:45.500Z,3.00
2019-01-29T17:03:53.635Z,3.60
2019-01-29T17:06:21.716Z,2.70
2019-01-29T17:08:49.981Z,3.30
2019-01-29T17:11:17.767Z,3.10
2019-01-29T17:13:46.210Z,3.23
2019-01-29T17:16:14.763Z,3.80
2019-01-29T17:18:43.365Z,4.13
2019-01-29T17:21:11.627Z,3.00
2019-01-29T17:23:39.391Z,3.40
2019-01-29T17:26:06.796Z,3.90
2019-01-29T17:28:35.298Z,4.27
2019-01-29T17:31:04.041Z,3.60
2019-01-29T17:33:32.622Z,3.30
2019-01-29T17:36:00.731Z,3.57
2019-01-29T17:38:29.398Z,3.37
2019-01-29T17:40:57.789Z,4.00
2019-01-29T17:43:25.674Z,4.93
2019-01-29T17:45:53.425Z,4.70
2019-01-29T17:48:21.584Z,4.37
2019-01-29T17:50:50.094Z,4.47
2019-01-29T17:53:18.247Z,6.10
2019-01-29T17:58:55.145Z,6.43
2019-01-29T18:01:23.763Z,4.97
2019-01-29T18:03:51.512Z,5.63
2019-01-29T18:06:19.795Z,4.73
2019-01-29T18:08:49.802Z,4.30
2019-01-29T18:11:17.384Z,4.50
2019-01-29T18:13:45.870Z,5.20
2019-01-29T18:16:13.729Z,4.70
2019-01-29T18:18:41.536Z,5.13
2019-01-29T18:21:10.128Z,4.47
2019-01-29T18:23:38.540Z,4.13
2019-01-29T18:26:06.464Z,4.30
2019-01-29T18:28:34.338Z,4.77
2019-01-29T18:31:01.826Z,4.37
2019-01-29T18:33:29.558Z,4.73
2019-01-29T18:35:57.538Z,4.00
2019-01-29T18:39:05.852Z,4.67
2019-01-29T18:41:34.143Z,4.40
2019-01-29T18:44:02.262Z,4.73
2019-01-29T18:46:30.483Z,4.90
2019-01-29T18:48:59.005Z,3.90
2019-01-29T18:54:02.385Z,5.53
2019-01-29T18:56:30.347Z,5.33
2019-01-29T18:58:58.742Z,5.10
2019-01-29T19:01:26.942Z,4.87
2019-01-29T19:03:54.951Z,4.90
2019-01-29T19:06:22.884Z,5.53
2019-01-29T19:08:51.367Z,5.17
2019-01-29T19:11:19.532Z,5.20
2019-01-29T19:19:52.735Z,5.60
2019-01-29T19:25:16.636Z,5.67
2019-01-29T19:27:44.520Z,5.53
2019-01-29T19:33:06.955Z,5.73
2019-01-29T19:35:35.820Z,5.27
2019-01-29T19:38:44.314Z,4.83
2019-01-29T19:44:30.909Z,5.63
2019-01-29T19:47:18.493Z,4.67
2019-01-29T19:49:46.941Z,6.00
2019-01-29T19:52:14.915Z,5.97
2019-01-29T19:54:43.625Z,5.50
2019-01-29T19:57:11.696Z,5.60
2019-01-29T20:00:20.125Z,5.60
2019-01-29T20:02:48.742Z,5.33
2019-01-29T20:05:16.675Z,5.50
2019-01-29T20:07:44.627Z,5.90
2019-01-29T20:10:32.560Z,5.90
2019-01-29T20:16:36.021Z,5.37
2019-01-29T20:19:04.870Z,5.40
2019-01-29T20:24:28.726Z,5.63
2019-01-29T20:26:57.096Z,6.33
2019-01-29T20:29:44.667Z,6.10
2019-01-29T20:32:13.576Z,4.90
2019-01-29T20:35:21.962Z,5.43
2019-01-29T20:37:50.897Z,5.57
2019-01-29T20:40:59.164Z,5.53
2019-01-29T20:43:27.201Z,5.57
2019-01-29T20:45:55.800Z,6.80
2019-01-29T20:48:24.279Z,6.33
2019-01-29T20:50:54.269Z,6.17
2019-01-29T20:53:41.430Z,5.67
2019-01-29T21:02:13.209Z,6.63
2019-01-29T21:04:42.176Z,6.20
2019-01-29T21:07:10.881Z,6.43
2019-01-29T21:09:40.699Z,5.33
2019-01-29T21:12:51.247Z,5.43
2019-01-29T21:15:20.459Z,5.20
2019-01-29T21:17:49.062Z,4.83
2019-01-29T21:20:37.623Z,4.30
2019-01-29T21:23:05.859Z,5.17
2019-01-29T21:25:35.631Z,5.20
2019-01-29T21:28:44.587Z,4.77
2019-01-29T21:31:32.519Z,5.47
2019-01-29T21:34:01.479Z,5.13
2019-01-29T21:36:30.466Z,4.97
2019-01-29T21:39:39.485Z,5.13
2019-01-29T21:42:08.020Z,5.77
2019-01-29T21:44:56.338Z,5.23
2019-01-29T21:47:43.300Z,5.77
2019-01-29T21:53:31.825Z,4.93
2019-01-29T21:56:00.558Z,6.90
2019-01-29T21:58:29.189Z,5.60
2019-01-29T22:00:57.051Z,4.73
2019-01-29T22:03:25.805Z,5.23
2019-01-29T22:05:54.381Z,5.27
2019-01-29T22:08:43.701Z,4.73
2019-01-29T22:11:12.360Z,5.63
2019-01-29T22:13:41.035Z,6.03
2019-01-29T22:16:09.227Z,4.87
2019-01-29T22:18:37.955Z,5.17
2019-01-29T22:24:07.402Z,5.73
2019-01-29T22:26:54.497Z,5.50
2019-01-29T22:29:23.390Z,5.10
2019-01-29T22:31:52.554Z,4.83
2019-01-29T22:34:20.781Z,5.20
2019-01-29T22:37:07.979Z,4.97
2019-01-29T22:42:31.326Z,5.37
2019-01-29T22:44:59.829Z,5.33
2019-01-29T22:47:28.091Z,6.20
2019-01-29T22:49:56.590Z,5.80
2019-01-29T22:52:24.673Z,5.77
2019-01-29T22:54:52.851Z,5.63
2019-01-29T23:03:31.993Z,6.07
2019-01-29T23:06:38.518Z,6.47
2019-01-29T23:09:26.467Z,6.33
2019-01-29T23:12:15.039Z,5.77
2019-01-29T23:14:44.406Z,6.00
2019-01-29T23:21:01.324Z,6.33
2019-01-29T23:24:10.076Z,5.67
2019-01-29T23:29:42.962Z,5.20
2019-01-29T23:32:04.447Z,6.10
2019-01-29T23:34:33.540Z,6.73
2019-01-29T23:37:02.050Z,5.90
2019-01-29T23:39:49.861Z,6.77
2019-01-29T23:42:38.230Z,6.20
2019-01-29T23:45:26.302Z,6.10
2019-01-29T23:51:01.169Z,6.67
2019-01-29T23:53:29.310Z,6.97
2019-01-29T23:55:57.859Z,7.10
2019-01-29T23:58:26.293Z,6.27
